Hunt, Arkansas
Current Conditions -  °F | °C
As of 9:53 PM on Friday 19 Dec 2014 (Local Time) from KRUE Reporting Station
Overcast Overcast  
Wind Chill: 39°   Ceiling: 3300
Heat Index: 42°   Visibility: 9mi
Dew Point: 37°   Wind: 5mph
Humidity: 82%   Direction: 110°ESE
Pressure: 30.23"   Gusts: NA
Location:  35.4189°N, 93.6161°W
Report Text: KRUE 200353Z AUTO 11004KT 9SM OVC033 06/03 A3023 RMK AO2 SLP235 T00560028
Loading
Personal Weather Stations






























Interactive Weather Map New forecast layout! Learn more

10-Day Weather Forecast

Advertisements
Track Severe Weather on mobile